Rodanthe, NC (27968)

8:50 AM EDT on October 25, 2014 (GMT -0400)
Pea Island Refuge | Change Station
CLOSE
Current Station
Personal Weather Station
Location: Rodanthe, NC
Elevation: 6 ft
Nearby Weather Stations

Elev 6 ft 35.68 °N, 75.48 °W | Updated 19 minutes ago

Clear
Clear
59.8 °F
Feels Like 59.8 °F
N
6.0
Wind Variable Wind from NNW
Gusts 9.0 mph

Today
High -- | Low -- °F
--% Chance of Precip.
Yesterday
High -- | Low -- °F
Precip. -- in
7:17 AM 6:14 PM
Waxing Crescent, 3% visible
Pressure 29.99 in
Visibility 6.0 miles
Clouds Few 300 ft
Dew Point 56 °F
Humidity 90%
Rainfall 0.00 in
Snow Depth Not available.
UV 0 out of 12
Pollen 1.40 out of 12
Air Quality Not available.
Flu Activity Local Activity
SPECI K2DP 251216Z AUTO 32004KT 6SM BR FEW003 08/08 A2999 RMK AO2

More Conditions Fewer Conditions

Pressure 29.99 in
Visibility 6.0 miles
Clouds Few 300 ft
Dew Point 56 °F
Humidity 90%
Rainfall 0.00 in
Snow Depth Not available.
UV 0 out of 12
Pollen 1.40 out of 12
Air Quality Not available.
Flu Activity Local Activity
SPECI K2DP 251216Z AUTO 32004KT 6SM BR FEW003 08/08 A2999 RMK AO2

More Conditions Fewer Conditions

10-Day Weather Forecast

Almanac

Astronomy

Oct. 25, 2014 Rise Set
Actual Time 7:17 AM EDT 6:14 PM EDT
Civil Twilight 6:51 AM EDT 6:40 PM EDT
Nautical Twilight 6:21 AM EDT 7:10 PM EDT
Astronomical Twilight 5:51 AM EDT 7:39 PM EDT
Moon 8:51 AM EDT 7:38 PM EDT
Length of Visible Light 11h 49m
Length of Day
10h 57m
Tomorrow will be 2m 4s shorter.
Waxing Crescent, 3% of the Moon is Illuminated
Today
Waxing Crescent
Oct 30
First Quarter
Nov 6
Full
Nov 14
Last Quarter
Nov 22
New

Today's Extremes

State Highs State Lows

Community

WunderPhotos

Upload Photos

1,764,821 photos uploaded!

Nearby

Snow Depth

Station Depth Elevation
No new snow has been reported.

Earthquake Activity

City Distance Mag. Time & Date
No recent earthquake activity has been reported nearby.
Minimum magnitude displayed is 2.5.

Coastal Water Temperatures

Place Temperature
Beaufort, NC 66.9 °F
Hatteras, NC 64.9 °F
Oregon Inlet Marina, NC 64.0 °F
Duck Pier, NC 66.0 °F
Johnny Mercer Pier, Wrightsville Beach, NC 72.0 °F

Nearby Weather Stations